Time;durP1;ratioP1;P1;durP2;ratioP2;P2;SDS_P1;SDS_P2;PMS_P1;PMS_P2;Temp;Humidity;BMP_temperature;BMP_pressure;BME280_temperature;BME280_humidity;BME280_pressure;Samples;Min_cycle;Max_cycle;Signal;HPM_P1;HPM_P2
2023/12/19 00:00:19;;;;;;;21.70;10.30;;;7.00;99.90;;;;;;5011716;28;20148;-90
2023/12/19 00:02:45;;;;;;;29.45;13.52;;;7.00;99.90;;;;;;5010820;28;20592;-91
2023/12/19 00:05:11;;;;;;;28.40;14.75;;;7.00;99.90;;;;;;5011536;28;20038;-90
2023/12/19 00:07:37;;;;;;;19.98;8.57;;;7.00;99.90;;;;;;4994523;28;20036;-90
2023/12/19 00:10:02;;;;;;;27.88;11.70;;;7.10;99.90;;;;;;4994814;28;20046;-90
2023/12/19 00:12:28;;;;;;;19.30;8.52;;;7.00;99.90;;;;;;4994818;28;20038;-91
2023/12/19 00:14:54;;;;;;;28.98;13.23;;;7.00;99.90;;;;;;4995734;28;20400;-91
2023/12/19 00:17:19;;;;;;;20.63;8.10;;;7.00;99.90;;;;;;4995261;28;20080;-91
2023/12/19 00:19:45;;;;;;;21.10;9.68;;;7.00;99.90;;;;;;4995335;28;20506;-91
2023/12/19 00:22:10;;;;;;;29.75;13.88;;;7.00;99.90;;;;;;4994766;28;20116;-91
2023/12/19 00:24:39;;;;;;;27.35;14.15;;;7.00;99.90;;;;;;4994991;28;20034;-91
2023/12/19 00:27:04;;;;;;;19.70;9.13;;;7.10;99.90;;;;;;5011530;28;20068;-91
2023/12/19 00:29:30;;;;;;;15.95;8.70;;;7.10;99.90;;;;;;4995375;28;20499;-90
2023/12/19 00:31:56;;;;;;;23.00;10.18;;;7.10;99.90;;;;;;4995574;28;20130;-90
2023/12/19 00:34:21;;;;;;;16.42;7.90;;;7.10;99.90;;;;;;4995119;28;20041;-90
2023/12/19 00:36:47;;;;;;;19.58;7.57;;;7.00;99.90;;;;;;4995538;28;20041;-90
2023/12/19 00:39:12;;;;;;;18.48;9.23;;;7.10;99.90;;;;;;5013938;28;20507;-90
2023/12/19 00:41:38;;;;;;;19.05;8.70;;;7.10;99.90;;;;;;5014623;28;20037;-90
2023/12/19 00:44:04;;;;;;;23.75;11.15;;;7.10;99.90;;;;;;5014451;28;20107;-91
2023/12/19 00:46:30;;;;;;;16.65;8.77;;;7.10;99.90;;;;;;4999301;28;20069;-91
2023/12/19 00:48:56;;;;;;;18.40;9.30;;;7.10;99.90;;;;;;4998775;28;20084;-91
2023/12/19 00:51:22;;;;;;;14.43;6.82;;;7.10;99.90;;;;;;4998635;28;20099;-90
2023/12/19 00:53:47;;;;;;;22.75;12.73;;;7.10;99.90;;;;;;4998186;28;20502;-90
2023/12/19 00:56:13;;;;;;;23.00;11.38;;;7.10;99.90;;;;;;5014764;28;20041;-90
2023/12/19 00:58:39;;;;;;;19.33;9.85;;;7.10;99.90;;;;;;5014676;28;20508;-91
2023/12/19 01:01:05;;;;;;;22.23;11.00;;;7.10;99.90;;;;;;5014851;28;20034;-91
2023/12/19 01:03:35;;;;;;;21.75;12.35;;;7.10;99.90;;;;;;4997829;28;20029;-90
2023/12/19 01:06:02;;;;;;;18.15;7.97;;;7.10;99.90;;;;;;5014625;28;20037;-90
2023/12/19 01:08:29;;;;;;;18.20;8.80;;;7.10;99.90;;;;;;4998398;28;20041;-90
2023/12/19 01:10:55;;;;;;;12.18;7.15;;;7.00;99.90;;;;;;4998263;28;20041;-91
2023/12/19 01:13:21;;;;;;;20.17;9.75;;;7.10;99.90;;;;;;5014405;28;20077;-90
2023/12/19 01:15:47;;;;;;;14.05;6.75;;;7.00;99.90;;;;;;5014514;28;20041;-90
2023/12/19 01:18:13;;;;;;;15.88;7.85;;;7.00;99.90;;;;;;5014219;28;20542;-90
2023/12/19 01:20:39;;;;;;;15.68;7.30;;;7.10;99.90;;;;;;5014091;28;20038;-90
2023/12/19 01:23:05;;;;;;;21.27;10.60;;;7.00;99.90;;;;;;4997121;28;20488;-90
2023/12/19 01:25:31;;;;;;;12.88;6.40;;;7.10;99.90;;;;;;5014078;28;20052;-90
2023/12/19 01:27:56;;;;;;;18.15;9.23;;;7.00;99.90;;;;;;4997899;28;20041;-91
2023/12/19 01:30:22;;;;;;;18.75;9.75;;;7.10;99.90;;;;;;5014214;28;20098;-90
2023/12/19 01:32:48;;;;;;;18.08;9.23;;;7.00;99.90;;;;;;5013792;28;20056;-90
2023/12/19 01:35:14;;;;;;;13.30;6.82;;;7.00;99.90;;;;;;4997909;28;20532;-90
2023/12/19 01:37:43;;;;;;;15.05;7.32;;;7.00;99.90;;;;;;4997671;28;20140;-91
2023/12/19 01:40:09;;;;;;;14.23;7.22;;;7.00;99.90;;;;;;5013890;28;20037;-91
2023/12/19 01:42:35;;;;;;;11.43;5.00;;;7.00;99.90;;;;;;4997192;28;20045;-90
2023/12/19 01:45:09;;;;;;;16.58;8.13;;;7.00;99.90;;;;;;5014055;28;20037;-90
2023/12/19 01:47:35;;;;;;;12.15;5.53;;;7.10;99.90;;;;;;4997813;28;20041;-91
2023/12/19 01:50:00;;;;;;;16.48;9.07;;;7.00;99.90;;;;;;4996844;28;20479;-90
2023/12/19 01:52:27;;;;;;;18.90;9.65;;;7.00;99.90;;;;;;4997563;28;20116;-90
2023/12/19 01:54:52;;;;;;;18.42;10.15;;;7.00;99.90;;;;;;5013753;28;20045;-91
2023/12/19 01:57:18;;;;;;;17.67;8.57;;;7.00;99.90;;;;;;4997700;28;20043;-90
2023/12/19 01:59:45;;;;;;;15.00;7.60;;;7.00;99.90;;;;;;5013102;28;20087;-91
2023/12/19 02:02:11;;;;;;;14.10;6.15;;;7.00;99.90;;;;;;5012804;28;20041;-90
2023/12/19 02:04:37;;;;;;;14.73;7.70;;;7.00;99.90;;;;;;4996484;28;20044;-91
2023/12/19 02:07:03;;;;;;;15.13;8.00;;;7.00;99.90;;;;;;5013309;28;20040;-91
2023/12/19 02:09:28;;;;;;;16.77;9.23;;;7.00;99.90;;;;;;5013559;28;20419;-90
2023/12/19 02:11:54;;;;;;;12.73;6.03;;;7.10;99.90;;;;;;4997370;28;20041;-91
2023/12/19 02:14:20;;;;;;;17.33;9.23;;;7.00;99.90;;;;;;5013143;28;20037;-91
2023/12/19 02:16:45;;;;;;;19.48;10.23;;;7.00;99.90;;;;;;4997209;28;20087;-90
2023/12/19 02:19:13;;;;;;;19.88;10.43;;;7.00;99.90;;;;;;4996679;28;20131;-90
2023/12/19 02:21:38;;;;;;;14.65;7.75;;;7.00;99.90;;;;;;4996718;28;20728;-91
2023/12/19 02:24:04;;;;;;;15.20;8.05;;;7.00;99.90;;;;;;5012429;28;20124;-90
2023/12/19 02:26:31;;;;;;;18.40;9.00;;;7.00;99.90;;;;;;5012965;28;20049;-90
2023/12/19 02:28:57;;;;;;;21.85;11.05;;;7.00;99.90;;;;;;4996899;28;20041;-91
2023/12/19 02:31:22;;;;;;;12.25;6.10;;;7.00;99.90;;;;;;4997094;28;20053;-90
2023/12/19 02:33:48;;;;;;;14.40;6.90;;;7.00;99.90;;;;;;5012392;28;20048;-90
2023/12/19 02:36:16;;;;;;;19.77;10.02;;;7.00;99.90;;;;;;5012636;28;20037;-91
2023/12/19 02:38:42;;;;;;;16.95;8.10;;;7.00;99.90;;;;;;4995472;28;20514;-90
2023/12/19 02:41:10;;;;;;;14.23;6.82;;;7.00;99.90;;;;;;5012784;28;20116;-89
2023/12/19 02:43:36;;;;;;;13.48;6.32;;;7.00;99.90;;;;;;4995461;28;20395;-90
2023/12/19 02:46:02;;;;;;;11.25;5.35;;;7.00;99.90;;;;;;5012527;28;20125;-90
2023/12/19 02:48:27;;;;;;;14.75;7.68;;;7.00;99.90;;;;;;4996372;28;20124;-90
2023/12/19 02:50:53;;;;;;;15.20;7.28;;;7.00;99.90;;;;;;4996177;28;20664;-90
2023/12/19 02:53:18;;;;;;;16.98;7.07;;;7.00;99.90;;;;;;4996097;28;20045;-91
2023/12/19 02:55:44;;;;;;;17.70;7.13;;;7.00;99.90;;;;;;4996366;28;20041;-91
2023/12/19 02:58:10;;;;;;;14.82;6.80;;;7.00;99.90;;;;;;5011885;28;20124;-91
2023/12/19 03:00:35;;;;;;;12.90;7.15;;;7.00;99.90;;;;;;5011623;28;20039;-90
2023/12/19 03:03:01;;;;;;;16.02;8.43;;;7.10;99.90;;;;;;5011209;28;20037;-90
2023/12/19 03:05:26;;;;;;;14.38;7.18;;;7.10;99.90;;;;;;5012640;28;20128;-90
2023/12/19 03:07:52;;;;;;;17.48;7.80;;;7.10;99.90;;;;;;5011152;28;20466;-90
2023/12/19 03:10:18;;;;;;;10.85;5.47;;;7.00;99.90;;;;;;4995541;28;20075;-90
2023/12/19 03:12:44;;;;;;;13.00;6.82;;;7.10;99.90;;;;;;5012062;28;20073;-90
2023/12/19 03:15:09;;;;;;;18.75;8.07;;;7.10;99.90;;;;;;5012754;28;20038;-90
2023/12/19 03:17:35;;;;;;;15.43;7.35;;;7.00;99.90;;;;;;4995157;28;20567;-91
2023/12/19 03:20:01;;;;;;;11.68;5.60;;;7.00;99.90;;;;;;5011727;28;20038;-91
2023/12/19 03:22:26;;;;;;;13.35;6.80;;;7.00;99.90;;;;;;4994919;28;20091;-90
2023/12/19 03:24:52;;;;;;;14.02;7.32;;;7.10;99.90;;;;;;5013157;28;20068;-90
2023/12/19 03:27:18;;;;;;;13.10;6.38;;;7.00;99.90;;;;;;4995536;28;20040;-90
2023/12/19 03:29:43;;;;;;;12.13;5.93;;;7.10;99.90;;;;;;5011402;28;20440;-90
2023/12/19 03:32:09;;;;;;;12.77;5.68;;;7.10;99.90;;;;;;4994969;28;20041;-90
2023/12/19 03:34:37;;;;;;;11.25;5.15;;;7.00;99.90;;;;;;5032891;28;20100;-89
2023/12/19 03:37:04;;;;;;;14.10;7.10;;;7.00;99.90;;;;;;5015628;28;20139;-90
2023/12/19 03:39:30;;;;;;;10.95;4.95;;;7.10;99.90;;;;;;4998516;28;20038;-90
2023/12/19 03:41:55;;;;;;;13.10;5.97;;;7.10;99.90;;;;;;5014408;28;20159;-90
2023/12/19 03:44:21;;;;;;;10.50;4.82;;;7.10;99.90;;;;;;5014006;28;20122;-90
2023/12/19 03:46:46;;;;;;;11.10;5.50;;;7.10;99.90;;;;;;5014020;28;20040;-90
2023/12/19 03:49:13;;;;;;;12.35;5.63;;;7.10;99.90;;;;;;5013589;28;20049;-90
2023/12/19 03:51:38;;;;;;;13.52;5.88;;;7.10;99.90;;;;;;5011968;28;20459;-91
2023/12/19 03:54:04;;;;;;;16.05;7.97;;;7.10;99.90;;;;;;4995775;28;20045;-90
2023/12/19 03:56:30;;;;;;;14.23;7.13;;;7.20;99.90;;;;;;4995344;28;20037;-90
2023/12/19 03:58:55;;;;;;;12.43;5.28;;;7.10;99.90;;;;;;5010811;28;20128;-90
2023/12/19 04:01:23;;;;;;;12.23;5.53;;;7.20;99.90;;;;;;4995255;28;20452;-90
2023/12/19 04:03:49;;;;;;;8.25;4.38;;;7.20;99.90;;;;;;5010370;28;20099;-91
2023/12/19 04:06:15;;;;;;;14.63;7.43;;;7.20;99.90;;;;;;5011431;28;20045;-90
2023/12/19 04:08:40;;;;;;;12.25;6.10;;;7.20;99.90;;;;;;5011103;28;20087;-90
2023/12/19 04:11:06;;;;;;;13.32;6.22;;;7.20;99.90;;;;;;4995427;28;20057;-90
2023/12/19 04:13:31;;;;;;;11.63;5.55;;;7.20;99.90;;;;;;5012313;28;20041;-91
2023/12/19 04:15:57;;;;;;;12.65;6.05;;;7.20;99.90;;;;;;5014934;28;20049;-91
2023/12/19 04:18:23;;;;;;;9.35;4.00;;;7.20;99.90;;;;;;5015060;28;20041;-91
2023/12/19 04:20:48;;;;;;;9.20;3.65;;;7.20;99.90;;;;;;4998477;28;20466;-91
2023/12/19 04:23:14;;;;;;;10.48;4.55;;;7.20;99.90;;;;;;4997991;28;20033;-91
2023/12/19 04:25:39;;;;;;;12.30;5.53;;;7.20;99.90;;;;;;5014926;28;20042;-91
2023/12/19 04:28:05;;;;;;;12.13;6.07;;;7.20;99.90;;;;;;4998162;28;20048;-91
2023/12/19 04:30:31;;;;;;;10.70;4.78;;;7.20;99.90;;;;;;5015024;28;20040;-89
2023/12/19 04:32:56;;;;;;;9.80;5.03;;;7.20;99.90;;;;;;4997884;28;20037;-91
2023/12/19 04:35:22;;;;;;;9.55;4.70;;;7.20;99.90;;;;;;4998205;28;20044;-91
2023/12/19 04:37:47;;;;;;;10.50;5.07;;;7.20;99.90;;;;;;4997905;28;20503;-91
2023/12/19 04:40:13;;;;;;;10.60;4.85;;;7.20;99.90;;;;;;5014862;28;20095;-91
2023/12/19 04:42:39;;;;;;;10.63;5.47;;;7.20;99.90;;;;;;5014450;28;20040;-91
2023/12/19 04:45:05;;;;;;;8.75;3.72;;;7.20;99.90;;;;;;5014904;28;20045;-91
2023/12/19 04:47:31;;;;;;;10.60;3.83;;;7.20;99.90;;;;;;4998581;28;20484;-91
2023/12/19 04:49:56;;;;;;;9.15;4.43;;;7.30;99.90;;;;;;4998602;28;20038;-91
2023/12/19 04:52:22;;;;;;;12.65;5.90;;;7.30;99.90;;;;;;5014628;28;20099;-91
2023/12/19 04:54:48;;;;;;;11.63;5.40;;;7.20;99.90;;;;;;5014665;28;20047;-91
2023/12/19 04:57:14;;;;;;;10.02;4.47;;;7.30;99.90;;;;;;5014456;28;20053;-90
2023/12/19 04:59:39;;;;;;;11.30;4.60;;;7.30;99.90;;;;;;4997834;28;20041;-91
2023/12/19 05:02:05;;;;;;;11.57;5.72;;;7.20;99.90;;;;;;5014678;28;20045;-90
2023/12/19 05:04:32;;;;;;;12.55;6.07;;;7.20;99.90;;;;;;5014114;28;20044;-90
2023/12/19 05:06:57;;;;;;;8.98;4.57;;;7.20;99.90;;;;;;4998298;28;20439;-90
2023/12/19 05:09:23;;;;;;;9.52;5.13;;;7.20;99.90;;;;;;4998374;28;20053;-90
2023/12/19 05:11:49;;;;;;;9.95;4.72;;;7.20;99.90;;;;;;4998052;28;20410;-90
2023/12/19 05:14:14;;;;;;;12.07;5.95;;;7.20;99.90;;;;;;5014094;28;20081;-90
2023/12/19 05:16:40;;;;;;;8.27;3.83;;;7.30;99.90;;;;;;5014717;28;20041;-91
2023/12/19 05:19:05;;;;;;;9.18;3.92;;;7.30;99.90;;;;;;5014241;28;20037;-91
2023/12/19 05:21:41;;;;;;;12.18;6.28;;;7.30;99.90;;;;;;4997346;28;20029;-90
2023/12/19 05:24:09;;;;;;;9.43;3.88;;;7.30;99.90;;;;;;5013357;28;20045;-90
2023/12/19 05:26:35;;;;;;;9.55;5.00;;;7.30;99.90;;;;;;4997637;28;20091;-89
2023/12/19 05:29:00;;;;;;;12.90;5.65;;;7.30;99.90;;;;;;4997642;28;20120;-90
2023/12/19 05:31:26;;;;;;;9.90;4.45;;;7.40;99.90;;;;;;5014164;28;20057;-90
2023/12/19 05:33:52;;;;;;;10.35;4.90;;;7.30;99.90;;;;;;5014015;28;20052;-90
2023/12/19 05:36:17;;;;;;;12.55;5.22;;;7.40;99.90;;;;;;5013599;28;20045;-91
2023/12/19 05:38:43;;;;;;;9.68;3.70;;;7.40;99.90;;;;;;4997527;28;20045;-90
2023/12/19 05:41:14;;;;;;;8.32;4.10;;;7.40;99.90;;;;;;5013969;28;20044;-90
2023/12/19 05:43:40;;;;;;;7.88;3.45;;;7.40;99.90;;;;;;5013220;28;20038;-90
2023/12/19 05:46:06;;;;;;;11.13;4.85;;;7.40;99.90;;;;;;4996882;28;20099;-91
2023/12/19 05:48:31;;;;;;;9.43;4.53;;;7.30;99.90;;;;;;4996464;28;20041;-90
2023/12/19 05:50:57;;;;;;;8.23;3.50;;;7.40;99.90;;;;;;4997082;28;20044;-90
2023/12/19 05:53:23;;;;;;;7.43;3.67;;;7.40;99.90;;;;;;5013490;28;20045;-90
2023/12/19 05:55:48;;;;;;;9.07;4.07;;;7.40;99.90;;;;;;5012997;28;20053;-90
2023/12/19 05:58:14;;;;;;;8.88;3.50;;;7.40;99.90;;;;;;5013220;28;20107;-89
2023/12/19 06:00:40;;;;;;;8.43;3.67;;;7.40;99.90;;;;;;4996536;28;20033;-91
2023/12/19 06:03:05;;;;;;;9.82;3.33;;;7.30;99.90;;;;;;4995750;28;20086;-91
2023/12/19 06:05:31;;;;;;;10.60;4.85;;;7.40;99.90;;;;;;4997006;28;20102;-91
2023/12/19 06:08:00;;;;;;;6.70;3.20;;;7.40;99.90;;;;;;5013013;28;20080;-91
2023/12/19 06:10:26;;;;;;;7.65;3.25;;;7.40;99.90;;;;;;4996492;28;20095;-91
2023/12/19 06:12:51;;;;;;;6.78;3.05;;;7.40;99.90;;;;;;4996626;28;20033;-90
2023/12/19 06:15:17;;;;;;;8.77;3.90;;;7.40;99.90;;;;;;4996637;28;20500;-90
2023/12/19 06:17:43;;;;;;;6.35;2.60;;;7.40;99.90;;;;;;5012555;28;20068;-90
2023/12/19 06:20:12;;;;;;;8.57;4.07;;;7.40;99.90;;;;;;5012159;28;20048;-91
2023/12/19 06:22:41;;;;;;;9.25;3.58;;;7.40;99.90;;;;;;5011720;28;20042;-92
2023/12/19 06:25:07;;;;;;;10.15;4.03;;;7.30;99.90;;;;;;5012619;28;20034;-91
2023/12/19 06:27:34;;;;;;;7.93;3.67;;;7.40;99.90;;;;;;4995970;28;20136;-91
2023/12/19 06:30:00;;;;;;;8.00;3.90;;;7.40;99.90;;;;;;4996138;28;20526;-91
2023/12/19 06:32:25;;;;;;;10.57;4.03;;;7.40;99.90;;;;;;5011773;28;20048;-91
2023/12/19 06:34:51;;;;;;;7.68;3.30;;;7.40;99.90;;;;;;5012322;28;20140;-91
2023/12/19 06:37:17;;;;;;;9.10;3.92;;;7.40;99.90;;;;;;4994743;28;20072;-91
2023/12/19 06:39:43;;;;;;;12.50;4.40;;;7.40;99.90;;;;;;5011512;28;20052;-91
2023/12/19 06:42:09;;;;;;;10.60;4.03;;;7.40;99.90;;;;;;4995134;28;20033;-91
2023/12/19 06:44:35;;;;;;;8.88;3.70;;;7.40;99.90;;;;;;4995390;28;20037;-91
2023/12/19 06:47:00;;;;;;;8.20;3.65;;;7.40;99.90;;;;;;4995003;28;20037;-91
2023/12/19 06:49:26;;;;;;;8.57;2.92;;;7.40;99.90;;;;;;4996135;28;20041;-91
2023/12/19 06:51:53;;;;;;;8.73;4.03;;;7.40;99.90;;;;;;5012275;28;20029;-91
2023/12/19 06:54:18;;;;;;;8.63;3.85;;;7.40;99.90;;;;;;5011776;28;20041;-91
2023/12/19 06:56:44;;;;;;;10.20;4.57;;;7.40;99.90;;;;;;5012330;28;20091;-91
2023/12/19 06:59:10;;;;;;;10.02;4.63;;;7.40;99.90;;;;;;4995920;28;20042;-90
2023/12/19 07:01:36;;;;;;;8.98;4.00;;;7.50;99.90;;;;;;5011969;28;20412;-91
2023/12/19 07:04:03;;;;;;;9.32;2.95;;;7.50;99.90;;;;;;4995431;28;20038;-91
2023/12/19 07:06:29;;;;;;;9.48;3.85;;;7.50;99.90;;;;;;4995677;28;20037;-89
2023/12/19 07:08:55;;;;;;;8.55;3.35;;;7.50;99.90;;;;;;5011830;28;20091;-90
2023/12/19 07:11:21;;;;;;;8.77;3.58;;;7.50;99.90;;;;;;5012090;28;20071;-90
2023/12/19 07:13:47;;;;;;;8.05;3.53;;;7.50;99.90;;;;;;4995512;28;20044;-90
2023/12/19 07:16:17;;;;;;;9.02;4.18;;;7.60;99.90;;;;;;4995144;28;20790;-90
2023/12/19 07:18:47;;;;;;;10.80;4.28;;;7.60;99.90;;;;;;4995644;28;20539;-90
2023/12/19 07:21:25;;;;;;;8.45;3.40;;;7.50;99.90;;;;;;4995682;28;20405;-90
2023/12/19 07:23:52;;;;;;;11.20;3.97;;;7.60;99.90;;;;;;5011782;28;20037;-90
2023/12/19 07:26:27;;;;;;;13.05;4.22;;;7.50;99.90;;;;;;4994794;28;20045;-90
2023/12/19 07:28:54;;;;;;;8.95;3.63;;;7.60;99.90;;;;;;5011258;28;20046;-91
2023/12/19 07:31:20;;;;;;;8.80;4.00;;;7.60;99.90;;;;;;5012303;28;20045;-91
2023/12/19 07:33:46;;;;;;;9.52;3.97;;;7.60;99.90;;;;;;4995026;28;20128;-89
2023/12/19 07:36:12;;;;;;;7.32;3.13;;;7.60;99.90;;;;;;5011479;28;20204;-90
2023/12/19 07:38:37;;;;;;;8.02;3.33;;;7.60;99.90;;;;;;4995305;28;20046;-89
2023/12/19 07:41:04;;;;;;;7.63;3.03;;;7.60;99.90;;;;;;4994800;28;20044;-90
2023/12/19 07:43:31;;;;;;;7.15;3.38;;;7.60;99.90;;;;;;4991640;28;20052;-89
2023/12/19 07:45:57;;;;;;;7.65;3.33;;;7.60;99.90;;;;;;4990393;28;20044;-90
2023/12/19 07:48:22;;;;;;;9.23;3.05;;;7.60;99.90;;;;;;4993507;28;20037;-90
2023/12/19 07:50:50;;;;;;;7.40;2.17;;;7.60;99.90;;;;;;4995428;28;20048;-90
2023/12/19 07:53:15;;;;;;;8.30;3.38;;;7.60;99.90;;;;;;5008897;28;20053;-89
2023/12/19 07:55:41;;;;;;;6.93;2.85;;;7.60;99.90;;;;;;4995602;28;20038;-90
2023/12/19 07:58:07;;;;;;;8.18;3.65;;;7.60;99.90;;;;;;5012357;28;20551;-90
2023/12/19 08:00:33;;;;;;;9.35;3.05;;;7.60;99.90;;;;;;4998067;28;20160;-90
2023/12/19 08:02:59;;;;;;;6.63;2.38;;;7.60;99.90;;;;;;5012664;28;20060;-91
2023/12/19 08:05:24;;;;;;;8.20;3.10;;;7.60;99.90;;;;;;5014003;28;20603;-90
2023/12/19 08:07:50;;;;;;;6.15;2.60;;;7.60;99.90;;;;;;5013556;28;20045;-90
2023/12/19 08:10:15;;;;;;;7.50;2.55;;;7.70;99.90;;;;;;5010387;28;20041;-91
2023/12/19 08:12:41;;;;;;;8.15;2.65;;;7.70;99.90;;;;;;5002988;28;20049;-91
2023/12/19 08:15:10;;;;;;;8.07;2.97;;;7.70;99.90;;;;;;4993382;28;20037;-90
2023/12/19 08:17:37;;;;;;;7.10;3.13;;;7.70;99.90;;;;;;4996494;28;20041;-90
2023/12/19 08:20:04;;;;;;;4.70;1.90;;;7.70;99.90;;;;;;5013154;28;20049;-90
2023/12/19 08:22:30;;;;;;;6.15;2.45;;;7.70;99.90;;;;;;5012658;28;20041;-90
2023/12/19 08:24:55;;;;;;;6.70;2.35;;;7.70;99.90;;;;;;5012972;28;20052;-91
2023/12/19 08:27:26;;;;;;;4.18;1.80;;;7.80;99.90;;;;;;5012341;28;20071;-91
2023/12/19 08:29:51;;;;;;;3.78;1.52;;;7.80;99.90;;;;;;5012543;28;20037;-90
2023/12/19 08:32:17;;;;;;;7.28;2.40;;;7.80;99.90;;;;;;5009935;28;20516;-90
2023/12/19 08:34:43;;;;;;;5.97;2.63;;;7.80;99.90;;;;;;4996129;28;20080;-90
2023/12/19 08:37:09;;;;;;;4.60;1.95;;;7.80;99.90;;;;;;4996203;28;20041;-90
2023/12/19 08:39:34;;;;;;;4.40;1.77;;;7.80;99.90;;;;;;5012857;28;20040;-90
2023/12/19 08:42:00;;;;;;;8.80;3.10;;;7.90;99.90;;;;;;5012156;28;20385;-90
2023/12/19 08:44:26;;;;;;;6.32;2.63;;;7.90;99.90;;;;;;4994280;28;20041;-90
2023/12/19 08:46:53;;;;;;;6.93;2.75;;;7.90;99.90;;;;;;4993344;28;20042;-90
2023/12/19 08:49:19;;;;;;;5.57;2.45;;;7.90;99.90;;;;;;4995598;28;20038;-90
2023/12/19 08:51:48;;;;;;;7.20;3.13;;;7.90;99.90;;;;;;5012807;28;20084;-90
2023/12/19 08:54:14;;;;;;;4.15;1.75;;;8.00;99.90;;;;;;5008776;28;20197;-90
2023/12/19 08:56:41;;;;;;;4.95;2.20;;;8.00;99.90;;;;;;5011903;28;20120;-90
2023/12/19 08:59:07;;;;;;;4.80;2.25;;;8.00;99.90;;;;;;4995527;28;20045;-90
2023/12/19 09:01:32;;;;;;;6.60;2.75;;;8.00;99.90;;;;;;4995657;28;20040;-89
2023/12/19 09:04:00;;;;;;;7.45;3.40;;;8.00;99.90;;;;;;5012799;28;20731;-91
2023/12/19 09:06:26;;;;;;;4.85;2.38;;;8.00;99.90;;;;;;5012660;28;20651;-90
2023/12/19 09:08:51;;;;;;;6.75;2.55;;;8.10;99.90;;;;;;4996070;28;20120;-90
2023/12/19 09:11:17;;;;;;;7.47;3.65;;;8.10;99.90;;;;;;5013070;28;20528;-91
2023/12/19 09:13:43;;;;;;;7.18;2.80;;;8.10;99.90;;;;;;4995352;28;20042;-89
2023/12/19 09:16:09;;;;;;;7.93;3.72;;;8.10;99.90;;;;;;5011925;28;20393;-90
2023/12/19 09:18:34;;;;;;;5.93;2.47;;;8.20;99.90;;;;;;5012074;28;20034;-90
2023/12/19 09:21:00;;;;;;;5.97;2.55;;;8.20;99.90;;;;;;4996592;28;20681;-90
2023/12/19 09:23:26;;;;;;;6.82;2.75;;;8.20;99.90;;;;;;5011682;28;20068;-91
2023/12/19 09:25:51;;;;;;;5.13;2.38;;;8.20;99.90;;;;;;4995804;28;20051;-90
2023/12/19 09:28:17;;;;;;;5.75;2.47;;;8.20;99.90;;;;;;4996283;28;20037;-90
2023/12/19 09:30:43;;;;;;;5.20;2.40;;;8.20;99.90;;;;;;5011707;28;20045;-90
2023/12/19 09:33:08;;;;;;;7.75;3.75;;;8.20;99.90;;;;;;4995917;28;20041;-90
2023/12/19 09:35:34;;;;;;;6.72;2.78;;;8.30;99.90;;;;;;4996587;28;20038;-91
2023/12/19 09:38:01;;;;;;;7.28;3.33;;;8.20;99.90;;;;;;4996418;28;20060;-91
2023/12/19 09:40:31;;;;;;;9.65;4.13;;;8.30;99.90;;;;;;5012421;28;20033;-91
2023/12/19 09:42:57;;;;;;;6.38;3.13;;;8.30;99.90;;;;;;4994445;28;20053;-90
2023/12/19 09:45:24;;;;;;;7.35;2.92;;;8.30;99.90;;;;;;5002279;28;20041;-91
2023/12/19 09:47:59;;;;;;;8.43;3.65;;;8.30;99.90;;;;;;5009266;28;20049;-91
2023/12/19 09:50:27;;;;;;;9.20;4.30;;;8.30;99.90;;;;;;4996381;28;20037;-91
2023/12/19 09:52:57;;;;;;;11.63;4.60;;;8.30;99.90;;;;;;4994816;28;20045;-91
2023/12/19 09:55:25;;;;;;;9.50;4.90;;;8.40;99.90;;;;;;5011600;28;20077;-91
2023/12/19 09:57:53;;;;;;;10.63;4.05;;;8.30;99.90;;;;;;5012314;28;20052;-90
2023/12/19 10:00:20;;;;;;;8.40;4.07;;;8.30;99.90;;;;;;5011115;28;20500;-90
2023/12/19 10:02:45;;;;;;;4.25;1.85;;;8.40;99.90;;;;;;4994763;28;20030;-90
2023/12/19 10:05:11;;;;;;;6.45;3.22;;;8.40;99.90;;;;;;4992940;28;20095;-91
2023/12/19 10:07:38;;;;;;;8.00;3.30;;;8.40;99.90;;;;;;4994058;28;20044;-90
2023/12/19 10:10:06;;;;;;;6.68;3.13;;;8.40;99.90;;;;;;5010883;28;20380;-90
2023/12/19 10:12:32;;;;;;;8.80;3.92;;;8.40;99.90;;;;;;5006915;28;20037;-90
2023/12/19 10:15:15;;;;;;;6.32;2.92;;;8.40;99.90;;;;;;5011205;28;20071;-90
2023/12/19 10:18:07;;;;;;;7.78;3.78;;;8.40;99.90;;;;;;5010199;28;21469;-90
2023/12/19 10:20:32;;;;;;;5.72;2.75;;;8.40;99.90;;;;;;5008818;28;20042;-90
2023/12/19 10:23:03;;;;;;;6.85;3.08;;;8.50;99.90;;;;;;5016381;28;20069;-90
2023/12/19 10:25:29;;;;;;;9.25;4.15;;;8.50;99.90;;;;;;5019377;28;20033;-90
2023/12/19 10:28:08;;;;;;;6.88;3.67;;;8.50;99.90;;;;;;4998305;28;20037;-90
2023/12/19 10:30:36;;;;;;;3.65;1.88;;;8.50;99.90;;;;;;4999018;28;20045;-90
2023/12/19 10:33:03;;;;;;;6.40;2.50;;;8.50;99.90;;;;;;4998020;28;20034;-90
2023/12/19 10:35:38;;;;;;;5.07;2.38;;;8.60;99.90;;;;;;4998202;28;20547;-90
2023/12/19 10:38:05;;;;;;;12.35;5.47;;;8.50;99.90;;;;;;4998013;28;20041;-90
2023/12/19 10:40:31;;;;;;;8.18;3.65;;;8.60;99.90;;;;;;5011014;28;20045;-90
2023/12/19 10:42:58;;;;;;;6.65;3.25;;;8.50;99.90;;;;;;4993469;28;20037;-90
2023/12/19 10:45:27;;;;;;;7.75;3.30;;;8.60;99.90;;;;;;4992091;28;20029;-90
2023/12/19 10:47:52;;;;;;;5.32;2.92;;;8.60;99.90;;;;;;4994623;28;20040;-90
2023/12/19 10:50:18;;;;;;;6.85;2.80;;;8.60;99.90;;;;;;5010976;28;20030;-90
2023/12/19 10:52:44;;;;;;;7.90;3.47;;;8.60;99.90;;;;;;4994788;28;20046;-90
2023/12/19 10:55:17;;;;;;;8.35;4.28;;;8.60;99.90;;;;;;4994587;28;20041;-90
2023/12/19 10:57:46;;;;;;;9.45;3.63;;;8.60;99.90;;;;;;5009938;28;20048;-90
2023/12/19 11:00:21;;;;;;;9.77;4.43;;;8.70;99.90;;;;;;4994633;28;20052;-91
2023/12/19 11:03:08;;;;;;;8.68;3.88;;;8.70;99.90;;;;;;4993968;28;20128;-90
2023/12/19 11:05:42;;;;;;;10.15;4.75;;;8.70;99.90;;;;;;4994702;28;20512;-90
2023/12/19 11:08:18;;;;;;;9.68;4.93;;;8.70;99.90;;;;;;5010462;28;20049;-91
2023/12/19 11:10:51;;;;;;;8.82;4.47;;;8.70;99.90;;;;;;5009868;28;20454;-91
2023/12/19 11:13:18;;;;;;;5.93;3.00;;;8.70;99.90;;;;;;4987458;28;20446;-91
2023/12/19 11:16:30;;;;;;;7.72;3.95;;;8.70;99.90;;;;;;4993944;28;20044;-91
2023/12/19 11:19:03;;;;;;;9.18;4.97;;;8.70;99.90;;;;;;4914936;29;20055;-89
2023/12/19 11:21:41;;;;;;;9.15;4.63;;;8.70;99.90;;;;;;4931191;28;20054;-90
2023/12/19 11:24:23;;;;;;;8.93;3.88;;;8.70;99.90;;;;;;4947003;29;20042;-89
2023/12/19 11:27:03;;;;;;;7.43;3.47;;;8.70;99.90;;;;;;4946973;29;20043;-90
2023/12/19 11:29:50;;;;;;;10.98;5.60;;;8.80;99.90;;;;;;4913412;29;20058;-89
2023/12/19 11:32:31;;;;;;;12.82;5.45;;;8.80;99.90;;;;;;4943384;29;20066;-89
2023/12/19 11:35:13;;;;;;;16.42;5.13;;;8.70;99.90;;;;;;4940520;29;20043;-90
2023/12/19 11:37:43;;;;;;;12.20;5.18;;;8.80;99.90;;;;;;4926636;29;20565;-90
2023/12/19 11:40:18;;;;;;;11.05;5.80;;;8.70;99.90;;;;;;4947152;29;20104;-91
2023/12/19 11:42:45;;;;;;;10.30;5.78;;;8.80;99.90;;;;;;4914217;29;20047;-90
2023/12/19 11:45:16;;;;;;;10.43;5.22;;;8.80;99.90;;;;;;4923236;29;20053;-91
2023/12/19 11:47:42;;;;;;;9.20;4.45;;;8.80;99.90;;;;;;4930846;29;20051;-89
2023/12/19 11:50:08;;;;;;;9.25;4.20;;;8.80;99.90;;;;;;4915277;29;20047;-90
2023/12/19 11:52:38;;;;;;;11.13;5.82;;;8.80;99.90;;;;;;4932103;29;20070;-90
2023/12/19 11:55:07;;;;;;;10.43;4.32;;;8.80;99.90;;;;;;4963762;28;20045;-90
2023/12/19 11:57:33;;;;;;;10.30;5.60;;;8.80;99.90;;;;;;4992656;28;20037;-90
2023/12/19 12:00:00;;;;;;;12.50;5.55;;;8.80;99.90;;;;;;4993738;28;20068;-90
2023/12/19 12:02:33;;;;;;;12.98;6.15;;;8.80;99.90;;;;;;4993198;28;20829;-89
2023/12/19 12:05:02;;;;;;;;;;;8.90;99.90;;;;;;4994635;28;20547;-89
2023/12/19 12:07:29;;;;;;;11.75;5.88;;;8.90;99.90;;;;;;5009636;28;19921;-89
2023/12/19 12:10:06;;;;;;;10.65;4.40;;;8.90;99.90;;;;;;5003175;28;20544;-90
2023/12/19 12:12:36;;;;;;;9.82;3.92;;;8.90;99.90;;;;;;5002834;28;20397;-89
2023/12/19 12:15:11;;;;;;;11.00;4.45;;;8.90;99.90;;;;;;4993529;28;20389;-90
2023/12/19 12:17:37;;;;;;;7.63;3.83;;;8.90;99.90;;;;;;5007793;28;20674;-90
2023/12/19 12:20:06;;;;;;;9.50;4.43;;;8.90;99.90;;;;;;4993469;28;20077;-90
2023/12/19 12:22:32;;;;;;;8.32;4.03;;;8.90;99.90;;;;;;5006870;28;20033;-90
2023/12/19 12:24:59;;;;;;;10.73;5.35;;;8.90;99.90;;;;;;5010167;28;20038;-90
2023/12/19 12:27:25;;;;;;;9.73;5.05;;;9.00;99.90;;;;;;4993097;28;20500;-90
2023/12/19 12:29:51;;;;;;;10.25;4.95;;;9.00;99.90;;;;;;4990742;28;20052;-89
2023/12/19 12:32:17;;;;;;;9.27;4.63;;;9.00;99.90;;;;;;4993053;28;20033;-91
2023/12/19 12:34:46;;;;;;;7.97;3.55;;;9.00;99.90;;;;;;5012890;28;20045;-90
2023/12/19 12:37:16;;;;;;;8.25;3.80;;;9.00;99.90;;;;;;5012051;28;20036;-91
2023/12/19 12:39:42;;;;;;;8.95;4.45;;;9.00;99.90;;;;;;5014292;28;20037;-91
2023/12/19 12:42:08;;;;;;;7.60;3.95;;;9.00;99.90;;;;;;5012468;28;20091;-91
2023/12/19 12:44:34;;;;;;;8.00;3.67;;;9.00;99.90;;;;;;4996187;28;20401;-90
2023/12/19 12:47:00;;;;;;;8.93;4.05;;;9.10;99.90;;;;;;5013179;28;20112;-91
2023/12/19 12:49:25;;;;;;;10.93;5.60;;;9.10;99.90;;;;;;4997175;28;20040;-91